This is the latest recevied weather packets stored in our database for station/object DJ0JJ-11. If no packets are shown the sender has not sent any weather packets the latest 10 day(s).
| Time | Temp. | Humidity | Pressure | Rain* | Wind** | Luminosity | Snow |
|---|---|---|---|---|---|---|---|
| 1787470528 | 17.22° C | 77% | 1025.3 hPa | - | - | - | - |
| 1787469628 | 16.67° C | 80% | 1025.3 hPa | - | - | - | - |
| 1787468728 | 16.11° C | 82% | 1025.4 hPa | - | - | - | - |
| 1787467827 | 15.56° C | 83% | 1025.4 hPa | - | - | - | - |
| 1787466927 | 15° C | 86% | 1025.3 hPa | - | - | - | - |
| 1787466027 | 14.44° C | 90% | 1025.3 hPa | - | - | - | - |
| 1787465127 | 13.33° C | 91% | 1025.2 hPa | - | - | - | - |
| 1787464227 | 12.78° C | 90% | 1025 hPa | - | - | - | - |
| 1787463327 | 12.78° C | 91% | 1025 hPa | - | - | - | - |
| 1787462427 | 12.22° C | 89% | 1025 hPa | - | - | - | - |
| 1787461527 | 11.67° C | 89% | 1024.9 hPa | - | - | - | - |
| 1787460627 | 12.78° C | 85% | 1024.8 hPa | - | - | - | - |
| 1787459727 | 12.78° C | 84% | 1024.7 hPa | - | - | - | - |
| 1787458826 | 13.33° C | 84% | 1024.6 hPa | - | - | - | - |
| 1787457926 | 13.33° C | 84% | 1024.5 hPa | - | - | - | - |
| 1787457026 | 13.33° C | 85% | 1024.2 hPa | - | - | - | - |
| 1787456125 | 13.33° C | 84% | 1024.2 hPa | - | - | - | - |
| 1787455225 | 13.33° C | 88% | 1024.1 hPa | - | - | - | - |
| 1787454325 | 13.89° C | 86% | 1024.1 hPa | - | - | - | - |
| 1787453425 | 13.89° C | 89% | 1024.1 hPa | - | - | - | - |
| 1787452525 | 14.44° C | 84% | 1024.2 hPa | - | - | - | - |
| 1787451625 | 13.89° C | 84% | 1024.2 hPa | - | - | - | - |
| 1787450724 | 14.44° C | 86% | 1024.2 hPa | - | - | - | - |
| 1787449828 | 13.89° C | 88% | 1024.1 hPa | - | - | - | - |
| 1787448928 | 15° C | 85% | 1024 hPa | - | - | - | - |
* Rain since midnight (hover to see other rain measurements)
** Current wind speed in m/s (hover to see current wind gust speed)